Time;durP1;ratioP1;P1;durP2;ratioP2;P2;SDS_P1;SDS_P2;PMS_P1;PMS_P2;Temp;Humidity;BMP_temperature;BMP_pressure;BME280_temperature;BME280_humidity;BME280_pressure;Samples;Min_cycle;Max_cycle;Signal;HPM_P1;HPM_P2
2021/08/23 17:32:49;;;;;;;;;;;21.00;59.90;;;;;;5113599;27;19926;-87
2021/08/23 17:35:15;;;;;;;;;;;20.60;63.50;;;;;;5110385;28;20287;-86
2021/08/23 17:37:40;;;;;;;;;;;20.60;65.80;;;;;;5110862;28;19916;-87
2021/08/23 17:40:06;;;;;;;;;;;20.60;67.20;;;;;;5109698;28;19912;-87
2021/08/23 17:42:32;;;;;;;;;;;20.60;68.20;;;;;;5109980;28;19908;-88
2021/08/23 17:44:57;;;;;;;;;;;20.60;68.90;;;;;;5109645;28;20439;-88
2021/08/23 17:47:23;;;;;;;;;;;20.60;69.50;;;;;;5109108;27;19909;-87
2021/08/23 17:49:49;;;;;;;;;;;20.70;70.00;;;;;;5110390;28;19919;-87
2021/08/23 17:52:17;;;;;;;;;;;20.60;70.20;;;;;;5111061;28;19912;-87
2021/08/23 17:54:43;;;;;;;;;;;20.60;70.40;;;;;;5109974;28;19919;-87
2021/08/23 17:57:08;;;;;;;;;;;20.70;70.70;;;;;;5111593;28;19908;-89
2021/08/23 17:59:34;;;;;;;;;;;20.60;70.90;;;;;;5109333;28;19911;-87
2021/08/23 18:02:00;;;;;;;;;;;20.70;71.10;;;;;;5108132;28;19912;-88
2021/08/23 18:04:25;;;;;;;;;;;20.60;71.40;;;;;;5112396;28;20344;-87
2021/08/23 18:06:51;;;;;;;;;;;20.60;71.50;;;;;;5111966;28;20304;-89
2021/08/23 18:09:16;;;;;;;;;;;20.60;71.60;;;;;;5109261;28;19908;-89
2021/08/23 18:11:42;;;;;;;;;;;20.50;71.90;;;;;;5109310;28;20302;-88
2021/08/23 18:14:08;;;;;;;;;;;20.50;72.10;;;;;;5109820;28;20002;-87
2021/08/23 18:16:33;;;;;;;;;;;20.50;72.30;;;;;;5110232;28;19916;-86
2021/08/23 18:18:59;;;;;;;;;;;20.40;72.50;;;;;;5110510;28;19908;-87
2021/08/23 18:21:24;;;;;;;;;;;20.40;72.80;;;;;;5109386;28;19912;-87
2021/08/23 18:23:51;;;;;;;;;;;20.30;72.90;;;;;;5110033;28;19912;-88
2021/08/23 18:26:17;;;;;;;;;;;20.30;72.90;;;;;;5123875;28;19958;-87
2021/08/23 18:28:42;;;;;;;;;;;20.30;73.10;;;;;;5108857;28;19948;-87
2021/08/23 18:31:09;;;;;;;;;;;20.20;74.00;;;;;;5108108;28;19932;-88
2021/08/23 18:33:34;;;;;;;;;;;20.20;73.70;;;;;;5110773;28;19908;-88
2021/08/23 18:36:00;;;;;;;;;;;20.10;73.90;;;;;;5109965;28;19912;-88
2021/08/23 18:38:25;;;;;;;;;;;20.10;74.20;;;;;;5109640;28;21616;-88
2021/08/23 18:40:56;;;;;;;;;;;20.00;74.50;;;;;;5108600;28;19912;-88
2021/08/23 18:43:23;;;;;;;;;;;20.00;74.80;;;;;;5100671;28;19965;-90
2021/08/23 18:45:48;;;;;;;;;;;19.90;75.00;;;;;;5100028;28;19920;-89
2021/08/23 18:48:14;;;;;;;;;;;19.90;75.40;;;;;;5094982;28;19912;-89
2021/08/23 18:50:39;;;;;;;;;;;19.80;75.70;;;;;;5096059;28;19927;-92
2021/08/23 18:53:05;;;;;;;;;;;19.70;76.00;;;;;;5095911;28;19919;-91
2021/08/23 18:55:31;;;;;;;;;;;19.70;76.40;;;;;;5096238;28;19919;-91
2021/08/23 18:57:57;;;;;;;;;;;19.60;76.70;;;;;;5095322;28;20006;-91
2021/08/23 19:00:22;;;;;;;;;;;19.60;77.10;;;;;;5094212;28;20057;-91
2021/08/23 19:02:48;;;;;;;;;;;19.50;77.40;;;;;;5094186;28;20283;-91
2021/08/23 19:05:13;;;;;;;;;;;19.50;78.10;;;;;;5109862;28;20360;-92
2021/08/23 19:07:39;;;;;;;;;;;19.40;77.50;;;;;;5094257;28;19919;-91
2021/08/23 22:00:30;;;;;;;;;;;15.20;78.40;;;;;;5108807;27;19939;-89
2021/08/23 22:02:56;;;;;;;;;;;15.00;81.40;;;;;;5096408;28;19994;-89
2021/08/23 22:05:22;;;;;;;;;;;15.00;84.00;;;;;;5090694;28;19912;-88
2021/08/23 22:07:48;;;;;;;;;;;15.10;86.10;;;;;;5091215;28;20334;-89
2021/08/23 22:10:13;;;;;;;;;;;15.10;87.40;;;;;;5089839;28;19944;-89
2021/08/23 22:12:39;;;;;;;;;;;15.20;88.20;;;;;;5090413;28;19908;-90
